Goodells, Michigan
Current Conditions -  °F | °C
As of 10:57 AM on Sunday 23 Nov 2014 (Local Time) from KPHN Reporting Station
Light Rain Light Rain  
Wind Chill: 40°   Ceiling: 600
Heat Index: 45°   Visibility: 4mi
Dew Point: 43°   Wind: 9mph
Humidity: 93%   Direction: 190°S
Pressure: 29.94"   Gusts: NA
Location:  42.98°N, 82.67°W
Report Text: KPHN 231557Z AUTO 19008KT 4SM -RA OVC006 07/06 A2994 RMK AO2
Loading
Personal Weather Stations






























Interactive Weather Map New forecast layout! Learn more

10-Day Weather Forecast

Advertisements
Track Severe Weather on mobile